Charity, Virginia
Current Conditions -  °F | °C
As of 11:55 AM on Saturday 22 Nov 2014 (Local Time) from KMTV Reporting Station
Clear Clear  
Wind Chill: 43°   Ceiling: Unl
Heat Index: 47°   Visibility: 10mi
Dew Point: 14°   Wind: 10mph
Humidity: 26%   Direction: 220°SW
Pressure: 30.48"   Gusts: NA
Location:  36.9002°N, 80.0779°W
Report Text: KMTV 221655Z AUTO 22009KT 10SM CLR 09/M10 A3048 RMK AO2 T00851101
Loading
Personal Weather Stations






























Interactive Weather Map New forecast layout! Learn more

10-Day Weather Forecast

Advertisements
Track Severe Weather on mobile